Time;durP1;ratioP1;P1;durP2;ratioP2;P2;SDS_P1;SDS_P2;PMS_P1;PMS_P2;Temp;Humidity;BMP_temperature;BMP_pressure;BME280_temperature;BME280_humidity;BME280_pressure;Samples;Min_cycle;Max_cycle;Signal;HPM_P1;HPM_P2
2021/08/11 00:01:51;;;;;;;8.88;5.78;;;;;;;15.54;80.13;100642.33;1789954;79;20971;-76
2021/08/11 00:04:17;;;;;;;9.50;6.20;;;;;;;15.54;80.10;100642.33;1789701;80;21053;-76
2021/08/11 00:06:43;;;;;;;9.15;5.55;;;;;;;15.56;80.09;100637.58;1789994;80;20995;-76
2021/08/11 00:09:09;;;;;;;9.98;5.67;;;;;;;15.58;80.07;100632.85;1789796;79;21003;-76
2021/08/11 00:11:36;;;;;;;9.43;5.95;;;;;;;15.60;80.02;100636.16;1789600;79;21123;-76
2021/08/11 00:14:02;;;;;;;10.35;5.92;;;;;;;15.63;80.00;100645.17;1787729;80;21493;-76
2021/08/11 00:16:28;;;;;;;10.75;6.15;;;;;;;15.62;79.95;100630.09;1787900;80;21488;-75
2021/08/11 00:18:54;;;;;;;9.30;6.35;;;;;;;15.62;79.94;100631.44;1788023;79;21515;-76
2021/08/11 00:21:22;;;;;;;9.15;6.35;;;;;;;15.62;79.90;100626.06;1788256;79;21495;-76
2021/08/11 00:23:48;;;;;;;11.65;7.10;;;;;;;15.62;79.87;100639.50;1768403;80;21229;-76
2021/08/11 00:26:14;;;;;;;11.68;7.15;;;;;;;15.62;79.83;100639.50;1784666;80;21094;-75
2021/08/11 00:28:40;;;;;;;15.55;8.13;;;;;;;15.61;79.82;100624.39;1787328;78;21035;-76
2021/08/11 00:31:06;;;;;;;8.80;6.75;;;;;;;15.61;79.79;100621.70;1761856;79;20976;-76
2021/08/11 00:33:32;;;;;;;13.35;7.78;;;;;;;15.59;79.77;100631.80;1763578;80;20996;-76
2021/08/11 00:35:58;;;;;;;14.05;6.15;;;;;;;15.56;79.82;100638.92;1788379;80;21082;-76
2021/08/11 00:38:24;;;;;;;13.32;6.58;;;;;;;15.54;79.72;100622.17;1787991;79;21519;-76
2021/08/11 00:40:50;;;;;;;9.08;6.00;;;;;;;15.52;79.71;100621.02;1779908;79;21833;-76
2021/08/11 00:43:16;;;;;;;9.65;5.72;;;;;;;15.52;79.68;100625.58;1756378;81;21515;-76
2021/08/11 00:45:43;;;;;;;10.13;5.72;;;;;;;15.49;79.66;100632.99;1756343;81;21583;-76
2021/08/11 00:48:09;;;;;;;8.95;6.33;;;;;;;15.49;79.63;100631.65;1756307;81;21690;-76
2021/08/11 00:50:38;;;;;;;11.43;5.72;;;;;;;15.48;79.63;100624.60;1737501;80;21058;-76
2021/08/11 00:53:06;;;;;;;15.70;6.57;;;;;;;15.49;79.60;100627.62;1756623;81;21050;-76
2021/08/11 00:55:37;;;;;;;11.57;6.17;;;;;;;15.49;79.61;100631.65;1785174;80;21015;-76
2021/08/11 00:58:07;;;;;;;8.28;5.37;;;;;;;15.50;79.58;100635.17;1726635;83;21468;-77
2021/08/11 01:00:33;;;;;;;9.68;6.28;;;;;;;15.53;79.48;100628.56;1708254;83;21080;-76
2021/08/11 01:02:59;;;;;;;7.42;4.97;;;;;;;15.56;79.57;100635.73;1726315;82;21027;-76
2021/08/11 01:05:25;;;;;;;7.50;4.60;;;;;;;15.61;79.53;100643.20;1726273;82;21019;-76
2021/08/11 01:07:51;;;;;;;9.50;5.37;;;;;;;15.65;79.51;100643.14;1748043;80;21051;-76
2021/08/11 01:10:18;;;;;;;7.42;4.87;;;;;;;15.71;79.50;100643.69;1756047;80;21534;-76
2021/08/11 01:12:44;;;;;;;8.58;6.05;;;;;;;15.76;79.46;100638.56;1787933;80;21745;-76
2021/08/11 01:15:10;;;;;;;12.58;6.58;;;;;;;15.81;79.44;100637.44;1768199;80;21020;-76
2021/08/11 01:17:36;;;;;;;11.45;6.15;;;;;;;15.85;79.39;100636.02;1785598;79;21046;-76
2021/08/11 01:20:04;;;;;;;7.60;5.78;;;;;;;15.86;79.37;100641.21;1787730;80;21051;-76
2021/08/11 01:22:49;;;;;;;11.68;5.30;;;;;;;15.88;79.35;100643.17;1787689;80;21086;-76
2021/08/11 01:25:21;;;;;;;9.60;5.10;;;;;;;15.88;79.33;100636.95;1788403;80;21112;-76
2021/08/11 01:28:20;;;;;;;9.20;4.75;;;;;;;15.89;79.30;100634.59;1759927;79;21046;-76
2021/08/11 01:31:10;;;;;;;8.55;5.28;;;;;;;15.90;79.26;100651.06;1757375;81;21584;-76
2021/08/11 01:34:01;;;;;;;6.45;5.22;;;;;;;15.90;79.22;100647.03;1756640;81;21097;-76
2021/08/11 01:36:46;;;;;;;17.00;5.78;;;;;;;15.92;79.18;100638.23;1756965;81;21016;-76
2021/08/11 01:39:23;;;;;;;7.75;4.70;;;;;;;15.92;79.14;100639.58;1757229;81;21116;-76
2021/08/11 01:41:54;;;;;;;10.08;4.67;;;;;;;15.91;79.12;100636.05;1758623;80;21059;-76
2021/08/11 01:44:22;;;;;;;6.45;4.42;;;;;;;15.91;79.09;100635.22;1757238;81;21101;-76
2021/08/11 01:46:48;;;;;;;8.25;4.83;;;;;;;15.91;79.06;100639.25;1757151;81;21086;-76
2021/08/11 01:49:14;;;;;;;10.10;4.95;;;;;;;15.91;79.03;100641.94;1756958;81;21015;-76
2021/08/11 01:51:45;;;;;;;8.18;4.65;;;;;;;15.90;79.02;100651.06;1759024;80;21145;-76
2021/08/11 01:54:11;;;;;;;6.87;5.17;;;;;;;15.90;79.00;100647.03;1762648;80;21011;-76
2021/08/11 01:56:41;;;;;;;6.22;4.90;;;;;;;15.86;79.02;100648.45;1769733;80;21046;-76
2021/08/11 01:59:07;;;;;;;6.40;4.87;;;;;;;15.83;79.04;100644.81;1788543;80;21540;-76
2021/08/11 02:01:37;;;;;;;7.33;5.22;;;;;;;15.81;79.05;100654.91;1787932;80;21587;-76
2021/08/11 02:04:04;;;;;;;;;;;;;;;15.79;79.07;100655.64;1790966;79;21891;-76
2021/08/11 02:06:30;;;;;;;8.53;4.90;;;;;;;15.77;79.09;100663.89;1774915;80;20157;-76
2021/08/11 02:08:56;;;;;;;5.62;4.33;;;;;;;15.75;79.12;100662.44;1756912;81;21407;-76
2021/08/11 02:11:23;;;;;;;11.57;5.05;;;;;;;15.74;79.12;100666.14;1759160;80;21469;-76
2021/08/11 02:13:49;;;;;;;7.17;5.20;;;;;;;15.73;79.14;100664.47;1756904;81;21094;-76
2021/08/11 02:16:15;;;;;;;9.03;5.55;;;;;;;15.71;79.18;100667.89;1756852;81;21129;-76
2021/08/11 02:18:41;;;;;;;9.43;5.28;;;;;;;15.70;79.19;100663.53;1757049;81;21055;-76
2021/08/11 02:21:07;;;;;;;7.97;4.83;;;;;;;15.70;79.21;100671.59;1757077;81;21065;-76
2021/08/11 02:23:34;;;;;;;11.22;5.25;;;;;;;15.68;79.23;100673.66;1756778;81;20987;-76
2021/08/11 02:26:24;;;;;;;5.85;4.72;;;;;;;15.65;79.25;100668.68;1756374;81;21121;-76
2021/08/11 02:28:59;;;;;;;;;;;;;;;15.63;79.26;100664.00;1759502;80;21220;-76
2021/08/11 02:31:48;;;;;;;8.00;5.50;;;;;;;15.57;79.31;100671.51;1747195;81;20343;-76
2021/08/11 02:34:54;;;;;;;7.50;5.15;;;;;;;15.51;79.34;100681.70;1726008;82;20999;-76
2021/08/11 02:37:28;;;;;;;7.30;5.00;;;;;;;15.44;79.39;100681.12;1726702;82;21007;-76
2021/08/11 02:40:11;;;;;;;7.67;5.28;;;;;;;15.33;79.45;100676.27;1726985;82;21038;-76
2021/08/11 02:42:57;;;;;;;14.95;6.15;;;;;;;15.31;79.48;100680.98;1766213;80;21667;-76
2021/08/11 02:45:23;;;;;;;9.88;5.83;;;;;;;15.27;79.50;100687.77;1769187;80;20992;-76
2021/08/11 02:47:49;;;;;;;13.83;5.78;;;;;;;15.22;79.56;100688.88;1788061;80;20980;-76
2021/08/11 02:50:15;;;;;;;6.97;5.25;;;;;;;15.17;79.58;100689.11;1788282;80;21063;-76
2021/08/11 02:52:42;;;;;;;6.80;5.45;;;;;;;15.11;79.64;100677.30;1787794;79;21965;-76
2021/08/11 02:55:09;;;;;;;8.33;5.70;;;;;;;15.07;79.68;100691.30;1788209;79;21176;-76
2021/08/11 02:57:35;;;;;;;9.90;6.35;;;;;;;14.96;79.73;100692.63;1785512;80;21016;-76
2021/08/11 03:00:01;;;;;;;9.60;5.80;;;;;;;14.96;79.73;100692.63;1788146;80;20988;-76
2021/08/11 03:02:27;;;;;;;9.43;6.12;;;;;;;14.80;79.94;100682.14;1787854;79;21008;-76
2021/08/11 03:04:53;;;;;;;11.12;5.70;;;;;;;14.80;79.94;100682.14;1788434;80;21007;-76
2021/08/11 03:07:20;;;;;;;9.43;5.60;;;;;;;14.83;79.85;100700.55;1787956;80;21818;-76
2021/08/11 03:09:46;;;;;;;11.57;6.30;;;;;;;14.83;79.85;100700.55;1768057;80;21085;-76
2021/08/11 03:12:12;;;;;;;10.40;6.42;;;;;;;14.66;79.85;100680.34;1763715;79;20991;-76
2021/08/11 03:14:40;;;;;;;10.45;5.85;;;;;;;14.66;79.85;100680.34;1756859;81;21000;-75
2021/08/11 03:17:11;;;;;;;10.95;5.83;;;;;;;14.73;80.03;100698.70;1756963;81;21022;-76
2021/08/11 03:19:37;;;;;;;7.90;5.87;;;;;;;14.68;80.06;100695.23;1756993;81;21859;-76
2021/08/11 03:22:05;;;;;;;10.72;5.75;;;;;;;14.51;80.36;100685.73;1743557;81;21018;-76
2021/08/11 03:24:31;;;;;;;13.40;7.12;;;;;;;14.51;80.36;100685.73;1787729;80;21000;-76
2021/08/11 03:26:57;;;;;;;13.43;7.15;;;;;;;14.58;80.19;100700.06;1771523;80;21145;-76
2021/08/11 03:29:23;;;;;;;17.10;6.97;;;;;;;14.55;80.24;100700.45;1757446;80;21110;-76
2021/08/11 03:31:49;;;;;;;10.23;5.60;;;;;;;14.53;80.26;100694.95;1759800;81;21205;-76
2021/08/11 03:34:15;;;;;;;8.95;6.10;;;;;;;14.50;80.29;100702.34;1760156;81;20991;-76
2021/08/11 03:36:41;;;;;;;8.90;5.55;;;;;;;14.46;80.31;100706.42;1760172;81;21488;-76
2021/08/11 03:39:07;;;;;;;11.43;5.78;;;;;;;14.44;80.35;100703.61;1759938;81;21593;-76
2021/08/11 03:41:33;;;;;;;9.45;7.05;;;;;;;14.44;80.35;100703.61;1775684;80;21555;-76
2021/08/11 03:43:59;;;;;;;10.30;7.35;;;;;;;14.41;80.41;100706.16;1791359;79;21207;-76
2021/08/11 03:46:25;;;;;;;14.20;7.97;;;;;;;14.38;80.43;100699.84;1778036;79;21035;-76
2021/08/11 03:48:51;;;;;;;12.07;7.28;;;;;;;14.36;80.47;100698.34;1760048;81;21070;-76
2021/08/11 03:51:17;;;;;;;16.45;6.55;;;;;;;14.34;80.50;100701.22;1783050;79;20968;-76
2021/08/11 03:53:43;;;;;;;14.40;7.17;;;;;;;14.33;80.54;100706.22;1784927;79;21006;-76
2021/08/11 03:56:09;;;;;;;13.28;8.20;;;;;;;14.33;80.58;100704.88;1773628;80;21769;-76
2021/08/11 03:58:35;;;;;;;16.20;9.55;;;;;;;14.33;80.59;100710.25;1773437;79;20987;-75
2021/08/11 04:01:02;;;;;;;16.50;9.55;;;;;;;14.21;80.33;100688.95;1791269;79;21003;-76
2021/08/11 04:03:28;;;;;;;11.95;6.92;;;;;;;14.32;80.65;100709.92;1771678;79;20999;-76
2021/08/11 04:05:54;;;;;;;9.93;6.58;;;;;;;14.35;80.68;100710.95;1754590;81;21049;-76
2021/08/11 04:08:20;;;;;;;12.78;6.03;;;;;;;14.36;80.68;100707.73;1763992;81;21034;-76
2021/08/11 04:10:46;;;;;;;14.18;7.42;;;;;;;14.37;80.70;100714.27;1754288;81;20998;-76
2021/08/11 04:13:15;;;;;;;9.65;7.62;;;;;;;14.41;80.75;100714.72;1758217;81;21444;-76
2021/08/11 04:15:43;;;;;;;15.85;7.45;;;;;;;14.66;80.96;100720.61;1758604;81;20982;-77
2021/08/11 04:18:09;;;;;;;10.38;6.05;;;;;;;15.74;81.35;100720.77;1760091;80;21042;-76
2021/08/11 04:20:38;;;;;;;11.15;5.42;;;;;;;16.88;81.14;100726.06;1760207;80;21123;-76
2021/08/11 04:23:05;;;;;;;7.80;5.37;;;;;;;17.73;80.71;100725.37;1740468;81;21015;-76
2021/08/11 04:25:31;;;;;;;7.55;4.72;;;;;;;18.31;80.26;100729.83;1769513;80;21035;-76
2021/08/11 04:27:57;;;;;;;7.87;4.55;;;;;;;19.07;79.79;100735.33;1784427;79;20995;-77
2021/08/11 04:30:23;;;;;;;10.00;4.92;;;;;;;19.53;79.04;100730.19;1761811;79;21492;-77
2021/08/11 04:32:49;;;;;;;8.43;4.85;;;;;;;19.98;78.49;100730.31;1728272;81;21596;-77
2021/08/11 04:35:15;;;;;;;5.97;4.03;;;;;;;20.41;78.04;100735.17;1724191;81;20905;-77
2021/08/11 04:37:41;;;;;;;8.90;4.50;;;;;;;20.90;77.24;100734.66;1738262;81;20988;-78
2021/08/11 04:40:08;;;;;;;6.60;4.05;;;;;;;21.19;76.50;100744.73;1730156;81;21037;-77
2021/08/11 04:42:34;;;;;;;6.42;4.65;;;;;;;21.26;75.64;100744.10;1742907;81;21042;-77
2021/08/11 04:45:01;;;;;;;7.08;4.50;;;;;;;21.54;75.06;100743.98;1756360;81;22366;-76
2021/08/11 04:47:27;;;;;;;7.58;4.55;;;;;;;21.77;74.10;100749.47;1753083;81;21513;-77
2021/08/11 04:49:53;;;;;;;6.35;4.35;;;;;;;21.96;73.12;100749.67;1728112;81;21043;-77
2021/08/11 04:52:19;;;;;;;8.48;4.40;;;;;;;22.12;72.25;100747.62;1729846;81;21042;-77
2021/08/11 04:54:45;;;;;;;10.23;4.72;;;;;;;21.89;71.35;100752.47;1744044;81;21011;-77
2021/08/11 04:57:11;;;;;;;7.50;3.90;;;;;;;21.50;70.57;100751.77;1737731;81;21566;-77
2021/08/11 04:59:37;;;;;;;8.58;3.62;;;;;;;20.59;69.71;100751.12;1741992;80;21443;-76
2021/08/11 05:02:03;;;;;;;6.55;4.35;;;;;;;20.17;69.97;100757.70;1720790;82;21000;-77
2021/08/11 05:04:29;;;;;;;6.95;4.05;;;;;;;20.53;69.88;100761.52;1729237;81;21017;-76
2021/08/11 05:06:57;;;;;;;12.03;5.67;;;;;;;20.31;69.74;100755.19;1707352;81;21073;-78
2021/08/11 05:09:23;;;;;;;6.40;4.58;;;;;;;19.88;69.82;100759.73;1756624;80;21388;-77
2021/08/11 05:11:49;;;;;;;9.85;4.10;;;;;;;19.71;70.10;100766.76;1752425;81;21049;-77
2021/08/11 05:14:15;;;;;;;8.13;4.55;;;;;;;19.60;70.07;100770.20;1765097;80;21511;-78
2021/08/11 05:16:41;;;;;;;6.65;4.28;;;;;;;19.54;70.11;100772.41;1756473;80;21019;-78
2021/08/11 05:19:07;;;;;;;8.95;4.78;;;;;;;19.64;70.07;100774.09;1758700;80;21006;-77
2021/08/11 05:21:33;;;;;;;9.48;4.55;;;;;;;19.41;69.80;100762.00;1760165;81;21356;-77
2021/08/11 05:23:59;;;;;;;8.50;4.80;;;;;;;18.83;69.83;100759.06;1735520;81;21019;-78
2021/08/11 05:26:25;;;;;;;7.40;4.50;;;;;;;18.62;69.90;100767.47;1738653;81;21530;-77
2021/08/11 05:28:51;;;;;;;8.10;4.30;;;;;;;18.77;69.91;100763.98;1732210;82;21046;-77
2021/08/11 05:31:17;;;;;;;7.42;4.83;;;;;;;18.92;69.86;100774.02;1733022;81;21087;-78
2021/08/11 06:16:28;;;;;;;6.92;4.55;;;;;;;19.84;67.96;100801.31;1797894;79;22141;-77
2021/08/11 06:18:56;;;;;;;9.58;5.22;;;;;;;19.82;67.93;100802.59;1756802;80;21034;-77
2021/08/11 06:21:22;;;;;;;12.55;4.92;;;;;;;19.99;67.92;100802.86;1755419;81;21499;-77
2021/08/11 06:23:51;;;;;;;9.28;4.72;;;;;;;20.08;67.86;100805.09;1759722;80;20987;-77
2021/08/11 06:26:16;;;;;;;7.55;4.90;;;;;;;19.85;67.57;100808.39;1776225;80;21070;-77
2021/08/11 06:28:42;;;;;;;7.78;4.45;;;;;;;19.42;67.57;100806.13;1753693;81;21569;-77
2021/08/11 06:31:08;;;;;;;7.87;5.00;;;;;;;19.26;67.66;100807.41;1758991;81;21043;-77
2021/08/11 06:33:34;;;;;;;8.18;4.70;;;;;;;19.19;67.67;100811.20;1758840;81;21054;-77
2021/08/11 06:36:00;;;;;;;32.25;7.22;;;;;;;19.24;67.77;100808.69;1768690;80;21074;-78
2021/08/11 06:38:26;;;;;;;5.80;4.45;;;;;;;19.29;67.73;100816.44;1758702;80;20982;-77
2021/08/11 06:40:52;;;;;;;6.55;4.62;;;;;;;19.30;67.70;100819.98;1756921;81;21038;-78
2021/08/11 06:43:19;;;;;;;5.12;3.75;;;;;;;19.32;67.76;100824.64;1758034;80;21054;-78
2021/08/11 06:45:45;;;;;;;6.17;3.70;;;;;;;19.57;67.83;100819.32;1782505;80;21091;-78
2021/08/11 06:48:11;;;;;;;7.20;4.62;;;;;;;19.62;67.73;100823.56;1769122;80;21500;-78
2021/08/11 06:50:37;;;;;;;6.47;3.90;;;;;;;19.57;67.68;100822.03;1768455;80;21042;-77
2021/08/11 06:53:03;;;;;;;3.95;3.45;;;;;;;19.74;67.65;100824.50;1724433;83;21066;-77
2021/08/11 06:55:29;;;;;;;4.62;3.45;;;;;;;19.98;67.54;100825.08;1696428;82;21027;-78
2021/08/11 06:57:55;;;;;;;5.53;3.25;;;;;;;20.14;67.32;100825.03;1707681;82;21847;-78
2021/08/11 07:00:21;;;;;;;6.20;4.35;;;;;;;20.26;67.06;100822.73;1711615;82;21086;-77
2021/08/11 07:02:48;;;;;;;4.42;3.50;;;;;;;20.31;66.74;100824.80;1718204;81;21057;-77
2021/08/11 07:05:14;;;;;;;5.55;3.55;;;;;;;20.39;66.46;100833.48;1724139;81;21031;-78
2021/08/11 07:07:40;;;;;;;6.42;3.62;;;;;;;20.46;66.15;100823.09;1674202;82;21578;-78
2021/08/11 07:10:09;;;;;;;6.58;3.67;;;;;;;20.48;65.93;100812.31;1696778;84;22076;-78
2021/08/11 07:12:36;;;;;;;5.47;3.70;;;;;;;20.60;65.80;100820.55;1695874;83;21030;-78
2021/08/11 07:15:05;;;;;;;4.58;3.77;;;;;;;20.55;65.42;100823.11;1670593;84;21027;-78
2021/08/11 07:17:31;;;;;;;9.98;5.83;;;;;;;20.48;65.21;100827.77;1674089;84;21031;-78
2021/08/11 07:19:57;;;;;;;7.42;4.17;;;;;;;20.59;65.10;100835.14;1666280;85;21574;-78
2021/08/11 07:22:24;;;;;;;5.67;3.50;;;;;;;20.68;64.92;100822.97;1686509;83;22408;-78
2021/08/11 07:24:50;;;;;;;4.90;3.70;;;;;;;20.84;64.82;100827.25;1703839;82;21041;-78
2021/08/11 07:27:17;;;;;;;5.25;3.17;;;;;;;21.02;64.74;100826.41;1670174;84;21051;-78
2021/08/11 07:29:43;;;;;;;6.15;2.92;;;;;;;21.18;64.49;100827.16;1677299;84;21693;-78
2021/08/11 07:32:11;;;;;;;5.08;2.85;;;;;;;21.29;64.25;100830.45;1670137;85;21109;-76
2021/08/11 07:34:37;;;;;;;3.37;2.95;;;;;;;21.43;64.06;100826.50;1669683;84;22240;-77
2021/08/11 07:37:03;;;;;;;5.55;3.17;;;;;;;21.50;63.74;100827.76;1668234;85;20938;-77
2021/08/11 07:39:29;;;;;;;4.00;2.85;;;;;;;21.59;63.57;100833.70;1668259;85;21051;-78
2021/08/11 07:41:55;;;;;;;3.77;2.55;;;;;;;21.75;63.34;100830.31;1683862;84;21054;-77
2021/08/11 07:44:21;;;;;;;4.00;2.83;;;;;;;21.75;62.82;100832.50;1687405;84;21505;-77
2021/08/11 07:46:47;;;;;;;5.20;3.25;;;;;;;21.73;62.61;100837.88;1684720;84;22395;-78
2021/08/11 07:49:13;;;;;;;6.20;3.15;;;;;;;21.76;62.47;100841.48;1688547;84;21026;-78
2021/08/11 07:51:39;;;;;;;5.03;2.70;;;;;;;21.95;62.36;100839.03;1689024;84;21046;-77
2021/08/11 07:54:05;;;;;;;5.62;3.50;;;;;;;21.96;62.02;100842.02;1688233;84;21102;-77
2021/08/11 07:56:31;;;;;;;4.83;2.75;;;;;;;21.80;61.74;100842.67;1686504;84;21038;-77
2021/08/11 07:58:57;;;;;;;8.90;3.55;;;;;;;21.74;61.44;100838.19;1671809;84;21709;-77
2021/08/11 08:01:24;;;;;;;6.00;3.92;;;;;;;21.62;61.20;100842.73;1669894;85;21485;-78
2021/08/11 08:03:50;;;;;;;5.75;3.42;;;;;;;21.84;61.27;100843.34;1674363;84;21015;-78
2021/08/11 08:06:16;;;;;;;3.02;2.72;;;;;;;22.08;61.13;100840.16;1681401;83;21035;-76
2021/08/11 08:08:43;;;;;;;4.12;2.80;;;;;;;21.96;60.80;100843.37;1675988;84;21038;-76
2021/08/11 08:11:09;;;;;;;4.15;2.98;;;;;;;22.01;60.73;100842.16;1676377;85;21728;-75
2021/08/11 08:13:35;;;;;;;3.05;2.37;;;;;;;21.96;60.14;100840.66;1672988;85;21501;-76
2021/08/11 08:16:01;;;;;;;4.28;2.90;;;;;;;21.65;60.06;100844.98;1681608;85;21477;-76
2021/08/11 08:18:27;;;;;;;3.98;3.33;;;;;;;21.75;60.01;100845.25;1688040;84;21070;-76
2021/08/11 08:20:55;;;;;;;4.53;2.52;;;;;;;21.82;59.95;100850.05;1683133;85;21554;-76
2021/08/11 08:23:21;;;;;;;5.15;2.70;;;;;;;21.85;59.49;100844.15;1675041;85;21536;-77
2021/08/11 08:25:47;;;;;;;7.10;2.87;;;;;;;21.60;59.21;100851.66;1683025;84;20920;-76
2021/08/11 08:28:13;;;;;;;5.70;3.10;;;;;;;21.21;59.09;100853.02;1683452;85;21271;-76
2021/08/11 08:30:40;;;;;;;5.25;3.20;;;;;;;20.76;58.98;100857.88;1683360;85;21050;-76
2021/08/11 08:33:06;;;;;;;5.33;2.80;;;;;;;20.88;59.23;100852.86;1683103;85;21484;-77
2021/08/11 08:35:33;;;;;;;4.62;3.00;;;;;;;21.09;59.08;100849.38;1672650;85;22082;-76
2021/08/11 08:37:59;;;;;;;2.85;2.40;;;;;;;21.17;58.96;100852.65;1657777;85;21114;-76
2021/08/11 08:40:34;;;;;;;3.92;3.05;;;;;;;21.18;58.75;100855.64;1672964;85;21085;-75
2021/08/11 08:43:01;;;;;;;3.85;2.85;;;;;;;21.40;58.71;100844.61;1673976;84;21785;-76
2021/08/11 08:45:27;;;;;;;4.62;2.50;;;;;;;21.68;58.63;100843.16;1686879;84;21429;-75
2021/08/11 08:47:53;;;;;;;7.12;2.83;;;;;;;21.97;58.47;100839.61;1684314;84;22164;-76
2021/08/11 08:50:19;;;;;;;3.87;2.30;;;;;;;22.16;58.29;100843.91;1680643;85;21038;-77
2021/08/11 08:52:46;;;;;;;5.55;2.30;;;;;;;22.22;58.03;100845.67;1698578;84;21037;-76
2021/08/11 08:55:12;;;;;;;4.67;3.00;;;;;;;22.17;57.68;100846.89;1668607;85;21113;-76
2021/08/11 08:57:38;;;;;;;6.62;2.72;;;;;;;22.35;57.61;100841.88;1669975;84;21102;-76
2021/08/11 09:00:06;;;;;;;4.28;2.92;;;;;;;22.16;57.12;100849.34;1641756;85;21663;-76
2021/08/11 09:02:38;;;;;;;4.45;2.45;;;;;;;21.85;56.93;100848.22;1647545;86;21087;-76
2021/08/11 09:05:09;;;;;;;3.45;2.37;;;;;;;21.69;56.70;100844.83;1687393;84;21004;-76
2021/08/11 09:07:38;;;;;;;4.00;2.47;;;;;;;21.89;56.55;100847.53;1689901;84;21481;-77
2021/08/11 09:10:23;;;;;;;5.92;2.92;;;;;;;22.04;56.11;100842.22;1665978;84;21039;-77
2021/08/11 09:12:50;;;;;;;3.62;2.60;;;;;;;22.17;55.88;100850.14;1691178;83;22900;-77
2021/08/11 09:15:38;;;;;;;6.08;3.52;;;;;;;22.30;55.64;100852.12;1690254;84;21111;-76
2021/08/11 09:18:19;;;;;;;3.10;2.62;;;;;;;22.46;55.44;100853.29;1675632;84;20992;-77
2021/08/11 09:21:03;;;;;;;4.85;2.80;;;;;;;22.26;55.23;100846.86;1690856;84;21124;-77
2021/08/11 09:23:46;;;;;;;3.25;2.42;;;;;;;21.79;54.96;100851.88;1690296;84;21112;-77
2021/08/11 09:26:16;;;;;;;3.70;2.67;;;;;;;21.27;54.96;100852.94;1689966;84;21516;-76
2021/08/11 09:28:47;;;;;;;5.67;2.87;;;;;;;21.03;55.14;100855.72;1690437;84;21027;-77
2021/08/11 09:31:32;;;;;;;5.67;2.67;;;;;;;21.28;55.17;100845.10;1688935;84;21000;-77
2021/08/11 09:34:06;;;;;;;3.87;2.90;;;;;;;21.57;54.96;100849.41;1690046;84;21535;-76
2021/08/11 09:36:52;;;;;;;5.75;2.95;;;;;;;21.70;54.40;100843.78;1690479;84;21039;-77
2021/08/11 09:39:18;;;;;;;4.53;2.67;;;;;;;21.87;54.44;100851.55;1686258;83;21656;-77
2021/08/11 09:42:05;;;;;;;3.90;2.20;;;;;;;22.15;54.27;100853.11;1690261;84;21005;-77
2021/08/11 09:44:31;;;;;;;4.92;2.60;;;;;;;22.23;53.99;100845.14;1686393;84;21052;-77
2021/08/11 09:47:13;;;;;;;5.05;2.95;;;;;;;22.49;53.78;100846.55;1691393;84;21043;-77
2021/08/11 09:49:39;;;;;;;5.55;2.77;;;;;;;22.54;53.54;100850.75;1691280;83;21335;-77
2021/08/11 09:52:06;;;;;;;4.05;2.35;;;;;;;22.39;53.24;100857.49;1691028;84;21584;-77
2021/08/11 09:54:32;;;;;;;4.05;2.62;;;;;;;22.48;53.18;100854.42;1691333;84;20992;-77
2021/08/11 09:56:58;;;;;;;6.50;3.05;;;;;;;22.58;52.97;100853.30;1663283;84;21047;-77
2021/08/11 09:59:25;;;;;;;4.33;2.47;;;;;;;22.69;52.91;100860.66;1691299;84;21027;-77
2021/08/11 10:01:51;;;;;;;3.15;2.37;;;;;;;22.90;52.71;100848.59;1690842;84;21004;-77
2021/08/11 10:04:19;;;;;;;5.47;3.02;;;;;;;22.98;52.26;100850.12;1691137;84;21961;-77
2021/08/11 10:06:46;;;;;;;5.20;2.98;;;;;;;22.97;51.94;100844.41;1690988;84;20992;-77
2021/08/11 10:09:16;;;;;;;5.62;2.95;;;;;;;22.80;51.91;100857.90;1689349;84;21059;-73
2021/08/11 10:11:57;;;;;;;5.50;2.75;;;;;;;22.81;52.00;100858.73;1689707;84;21011;-74
2021/08/11 10:14:28;;;;;;;5.47;2.75;;;;;;;22.92;52.14;100853.80;1688410;83;20873;-73
2021/08/11 10:16:56;;;;;;;5.62;2.75;;;;;;;22.88;51.78;100871.67;1663516;83;21733;-73
2021/08/11 10:19:24;;;;;;;5.90;2.90;;;;;;;22.86;51.71;100869.73;1690733;83;21059;-73
2021/08/11 10:22:16;;;;;;;5.35;3.15;;;;;;;22.96;51.59;100865.87;1690320;83;21004;-73
2021/08/11 10:24:38;;;;;;;3.80;2.90;;;;;;;23.07;51.41;100875.91;1688471;84;21457;-73
2021/08/11 10:27:08;;;;;;;3.42;2.72;;;;;;;23.19;51.29;100876.69;1687200;84;21103;-74
2021/08/11 10:29:37;;;;;;;6.70;4.60;;;;;;;23.26;51.00;100865.13;1680872;83;21825;-75
2021/08/11 10:32:03;;;;;;;7.33;4.95;;;;;;;23.35;50.90;100870.50;1690474;84;20920;-74
2021/08/11 10:34:30;;;;;;;4.15;2.80;;;;;;;23.40;50.84;100873.30;1690802;84;21035;-74
2021/08/11 10:36:56;;;;;;;3.85;2.35;;;;;;;23.32;50.67;100872.34;1663718;84;20996;-74
2021/08/11 10:39:23;;;;;;;6.17;2.08;;;;;;;23.52;50.54;100875.19;1691185;83;21007;-74
2021/08/11 10:41:49;;;;;;;4.75;2.42;;;;;;;23.52;50.12;100869.74;1691198;83;22000;-74
2021/08/11 10:44:20;;;;;;;4.58;2.83;;;;;;;23.55;50.00;100869.25;1690568;84;21663;-74
2021/08/11 10:46:54;;;;;;;5.72;2.67;;;;;;;23.42;49.70;100868.19;1691157;84;20984;-74
2021/08/11 10:49:21;;;;;;;3.37;2.72;;;;;;;23.36;49.73;100869.41;1690428;84;21544;-74
2021/08/11 10:51:49;;;;;;;5.10;2.42;;;;;;;23.41;49.52;100876.89;1691336;83;21004;-74
2021/08/11 10:54:16;;;;;;;4.53;2.75;;;;;;;23.26;49.36;100874.65;1690971;84;21848;-74
2021/08/11 10:56:46;;;;;;;5.08;2.35;;;;;;;22.85;49.24;100879.78;1690855;83;21027;-74
2021/08/11 10:59:32;;;;;;;6.30;2.62;;;;;;;22.82;49.49;100880.80;1691193;84;21040;-74
2021/08/11 11:01:59;;;;;;;4.55;2.98;;;;;;;22.79;49.69;100879.91;1691048;83;21095;-75
2021/08/11 11:04:46;;;;;;;8.15;3.37;;;;;;;22.75;49.75;100880.09;1691475;84;21031;-75
2021/08/11 11:07:15;;;;;;;3.37;2.62;;;;;;;22.85;49.79;100877.06;1689124;84;21533;-74
2021/08/11 11:09:43;;;;;;;4.90;2.52;;;;;;;22.94;49.66;100870.70;1691299;84;20897;-74
2021/08/11 11:12:24;;;;;;;5.67;3.22;;;;;;;22.85;49.51;100875.70;1691325;84;21011;-74
2021/08/11 11:14:56;;;;;;;3.55;2.50;;;;;;;22.52;49.42;100877.36;1690401;83;21463;-74
2021/08/11 11:17:31;;;;;;;6.05;2.90;;;;;;;22.50;49.65;100880.30;1693507;84;21012;-74
2021/08/11 11:20:09;;;;;;;5.60;2.98;;;;;;;22.44;49.72;100877.70;1694160;83;21497;-74
2021/08/11 11:22:50;;;;;;;2.85;2.33;;;;;;;22.31;49.81;100872.78;1694323;84;21111;-74
2021/08/11 11:25:18;;;;;;;5.65;2.33;;;;;;;22.34;50.03;100876.38;1694632;84;22041;-74
2021/08/11 11:28:01;;;;;;;5.28;2.72;;;;;;;22.64;50.03;100876.81;1694442;84;21001;-74
2021/08/11 11:30:31;;;;;;;4.70;2.30;;;;;;;22.90;49.95;100875.00;1694485;84;21024;-74
2021/08/11 11:33:24;;;;;;;3.05;2.35;;;;;;;23.16;49.85;100877.17;1694233;83;21539;-74
2021/08/11 11:36:20;;;;;;;4.00;2.60;;;;;;;23.22;49.40;100877.56;1694305;84;21102;-74
2021/08/11 11:39:12;;;;;;;10.10;2.98;;;;;;;23.11;49.17;100881.16;1694276;83;21031;-74
2021/08/11 11:41:59;;;;;;;7.50;2.55;;;;;;;22.98;49.06;100885.48;1693972;83;21052;-74
2021/08/11 11:44:58;;;;;;;6.37;2.75;;;;;;;22.95;49.20;100882.42;1694263;84;21027;-74
2021/08/11 11:47:46;;;;;;;6.58;3.10;;;;;;;22.92;49.18;100879.66;1694882;83;21697;-74
2021/08/11 11:50:32;;;;;;;6.20;4.65;;;;;;;23.07;49.27;100873.19;1694609;84;20989;-74
2021/08/11 11:53:03;;;;;;;5.35;2.58;;;;;;;23.23;49.08;100875.14;1694097;84;21075;-74
2021/08/11 11:55:38;;;;;;;5.60;2.60;;;;;;;23.34;48.81;100874.28;1694573;84;21000;-74
2021/08/11 11:58:15;;;;;;;4.10;2.58;;;;;;;23.49;48.78;100871.59;1694581;84;20916;-74
2021/08/11 12:00:44;;;;;;;6.58;2.72;;;;;;;23.50;48.43;100875.45;1694654;84;21782;-74
2021/08/11 12:03:10;;;;;;;9.33;2.60;;;;;;;23.45;48.19;100865.81;1694835;84;21000;-74
2021/08/11 12:05:51;;;;;;;3.80;2.47;;;;;;;23.45;47.94;100875.34;1694604;84;21059;-74
2021/08/11 12:08:21;;;;;;;3.65;2.17;;;;;;;23.42;47.53;100869.55;1692560;84;21488;-74
2021/08/11 12:10:51;;;;;;;6.05;2.52;;;;;;;23.34;47.12;100870.73;1693936;84;21496;-74
2021/08/11 12:13:17;;;;;;;3.60;2.10;;;;;;;23.38;47.03;100867.28;1693022;83;21603;-74
2021/08/11 12:15:52;;;;;;;4.92;2.55;;;;;;;23.56;47.09;100872.27;1694167;84;20992;-74
2021/08/11 12:18:21;;;;;;;5.72;2.22;;;;;;;23.37;46.96;100871.07;1694201;83;21004;-74